Time;durP1;ratioP1;P1;durP2;ratioP2;P2;SDS_P1;SDS_P2;PMS_P1;PMS_P2;Temp;Humidity;BMP_temperature;BMP_pressure;BME280_temperature;BME280_humidity;BME280_pressure;Samples;Min_cycle;Max_cycle;Signal;HPM_P1;HPM_P2
2022/11/06 00:00:53;;;;;;;;;;;9.80;99.90;;;;;;5072656;28;19986;-69
2022/11/06 00:03:19;;;;;;;;;;;9.80;99.90;;;;;;5059897;28;19943;-67
2022/11/06 00:08:33;;;;;;;;;;;9.80;99.90;;;;;;5069852;28;19971;-67
2022/11/06 00:10:59;;;;;;;;;;;9.80;99.90;;;;;;5079105;28;20462;-66
2022/11/06 00:13:25;;;;;;;;;;;9.80;99.90;;;;;;5063562;28;19971;-69
2022/11/06 00:15:50;;;;;;;;;;;9.70;99.90;;;;;;5060126;28;19974;-68
2022/11/06 00:18:16;;;;;;;;;;;9.80;99.90;;;;;;5069216;28;19925;-71
2022/11/06 00:20:41;;;;;;;;;;;9.80;99.90;;;;;;5074438;28;19920;-66
2022/11/06 00:23:07;;;;;;;;;;;9.70;99.90;;;;;;5077114;28;20389;-68
2022/11/06 00:25:32;;;;;;;;;;;9.70;99.90;;;;;;5069798;28;19924;-67
2022/11/06 00:27:58;;;;;;;;;;;9.70;99.90;;;;;;5068305;28;19920;-67
2022/11/06 00:30:23;;;;;;;;;;;9.70;99.90;;;;;;5067455;28;20330;-69
2022/11/06 00:32:49;;;;;;;;;;;9.60;99.90;;;;;;5073485;28;19920;-67
2022/11/06 00:35:14;;;;;;;;;;;9.60;99.90;;;;;;5107104;27;19924;-71
2022/11/06 00:37:40;;;;;;;;;;;9.60;99.90;;;;;;5069587;28;19931;-71
2022/11/06 00:40:06;;;;;;;;;;;9.70;99.90;;;;;;5068008;28;20003;-67
2022/11/06 00:42:31;;;;;;;;;;;9.60;99.90;;;;;;5065663;28;20007;-67
2022/11/06 00:44:59;;;;;;;;;;;9.60;99.90;;;;;;5068686;28;20345;-71
2022/11/06 00:47:24;;;;;;;;;;;9.60;99.90;;;;;;5058620;28;19924;-69
2022/11/06 00:49:50;;;;;;;;;;;9.60;99.90;;;;;;5072473;28;19924;-68
2022/11/06 00:52:15;;;;;;;;;;;9.60;99.90;;;;;;5083211;28;19970;-67
2022/11/06 00:54:41;;;;;;;;;;;9.60;99.90;;;;;;5071965;28;19921;-66
2022/11/06 00:57:06;;;;;;;;;;;9.60;99.90;;;;;;5070803;28;19977;-67
2022/11/06 00:59:32;;;;;;;;;;;9.60;99.90;;;;;;5069787;28;19925;-69
2022/11/06 01:01:57;;;;;;;;;;;9.60;99.90;;;;;;5069343;28;19921;-69
2022/11/06 01:04:33;;;;;;;;;;;9.60;99.90;;;;;;5056230;28;19928;-67
2022/11/06 01:06:58;;;;;;;;;;;9.60;99.90;;;;;;5052954;28;20020;-69
2022/11/06 01:09:25;;;;;;;;;;;9.60;99.90;;;;;;5068835;28;19972;-68
2022/11/06 01:11:52;;;;;;;;;;;9.60;99.90;;;;;;5065303;28;19975;-67
2022/11/06 01:14:18;;;;;;;;;;;9.50;99.90;;;;;;5084738;28;20339;-69
2022/11/06 01:16:44;;;;;;;;;;;9.50;99.90;;;;;;5075731;28;19973;-69
2022/11/06 01:19:13;;;;;;;;;;;9.50;99.90;;;;;;5074148;28;19985;-70
2022/11/06 01:21:40;;;;;;;;;;;9.40;99.90;;;;;;5069811;28;19928;-70
2022/11/06 01:24:07;;;;;;;;;;;9.40;99.90;;;;;;5070000;28;19925;-70
2022/11/06 01:26:33;;;;;;;;;;;9.40;99.90;;;;;;5072554;28;19924;-70
2022/11/06 01:28:58;;;;;;;;;;;9.40;99.90;;;;;;5071869;28;19920;-70
2022/11/06 01:31:25;;;;;;;;;;;9.40;99.90;;;;;;5072819;28;20371;-67
2022/11/06 01:33:51;;;;;;;;;;;9.40;99.90;;;;;;5066190;28;19963;-69
2022/11/06 01:36:18;;;;;;;;;;;9.30;99.90;;;;;;5054804;28;20400;-68
2022/11/06 01:38:44;;;;;;;;;;;9.40;99.90;;;;;;5069922;28;19920;-68
2022/11/06 01:41:19;;;;;;;;;;;9.40;99.90;;;;;;5074225;28;19921;-70
2022/11/06 01:43:45;;;;;;;;;;;9.40;99.90;;;;;;5071650;28;20298;-71
2022/11/06 01:46:10;;;;;;;;;;;9.30;99.90;;;;;;5074461;28;19920;-69
2022/11/06 01:48:37;;;;;;;;;;;9.40;99.90;;;;;;5070785;28;20310;-70
2022/11/06 01:51:02;;;;;;;;;;;9.30;99.90;;;;;;5073234;28;19920;-70
2022/11/06 01:53:28;;;;;;;;;;;9.30;99.90;;;;;;5065698;28;20003;-70
2022/11/06 01:55:55;;;;;;;;;;;9.30;99.90;;;;;;5054202;28;19963;-70
2022/11/06 01:58:22;;;;;;;;;;;9.30;99.90;;;;;;5070961;28;19920;-71
2022/11/06 02:00:48;;;;;;;;;;;9.30;99.90;;;;;;5083468;28;19924;-71
2022/11/06 02:03:14;;;;;;;;;;;9.30;99.90;;;;;;5069979;28;19924;-69
2022/11/06 02:05:40;;;;;;;;;;;9.20;99.90;;;;;;5067317;28;19924;-72
2022/11/06 02:08:06;;;;;;;;;;;9.20;99.90;;;;;;5069857;28;19920;-71
2022/11/06 02:10:32;;;;;;;;;;;9.20;99.90;;;;;;5071957;28;19920;-69
2022/11/06 02:13:21;;;;;;;;;;;9.20;99.90;;;;;;5073990;28;20379;-70
2022/11/06 02:16:05;;;;;;;;;;;9.20;99.90;;;;;;5050742;28;19924;-69
2022/11/06 02:18:57;;;;;;;;;;;9.20;99.90;;;;;;5076200;28;20203;-71
2022/11/06 02:21:35;;;;;;;;;;;9.20;99.90;;;;;;5067561;28;19927;-70
2022/11/06 02:24:19;;;;;;;;;;;9.20;99.90;;;;;;5073569;28;20386;-69
2022/11/06 02:26:56;;;;;;;;;;;9.20;99.90;;;;;;5067849;28;19928;-70
2022/11/06 02:29:28;;;;;;;;;;;9.20;99.90;;;;;;5070680;28;19921;-70
2022/11/06 02:31:54;;;;;;;;;;;9.30;99.90;;;;;;5075900;28;19943;-71
2022/11/06 02:34:22;;;;;;;;;;;9.20;99.90;;;;;;5074990;28;20024;-72
2022/11/06 02:37:03;;;;;;;;;;;9.20;99.90;;;;;;5064524;28;19925;-70
2022/11/06 02:39:30;;;;;;;;;;;9.20;99.90;;;;;;5070731;28;19934;-71
2022/11/06 02:41:57;;;;;;;;;;;9.10;99.90;;;;;;5071570;28;20263;-70
2022/11/06 02:44:25;;;;;;;;;;;9.10;99.90;;;;;;5076667;28;19929;-70
2022/11/06 02:46:52;;;;;;;;;;;9.20;99.90;;;;;;5075656;28;19920;-70
2022/11/06 02:49:38;;;;;;;;;;;9.20;99.90;;;;;;5067468;28;20000;-68
2022/11/06 02:52:06;;;;;;;;;;;9.30;99.90;;;;;;5066892;28;19982;-72
2022/11/06 02:54:34;;;;;;;;;;;9.20;99.90;;;;;;5102283;27;19945;-70
2022/11/06 02:57:02;;;;;;;;;;;9.30;99.90;;;;;;5075843;28;19952;-70
2022/11/06 02:59:47;;;;;;;;;;;9.30;99.90;;;;;;5073918;28;20359;-70
2022/11/06 03:02:15;;;;;;;;;;;9.20;99.90;;;;;;5059431;28;19920;-70
2022/11/06 03:04:52;;;;;;;;;;;9.30;99.90;;;;;;5057806;28;19924;-70
2022/11/06 03:07:21;;;;;;;;;;;9.30;99.90;;;;;;5072039;28;19956;-70
2022/11/06 03:09:47;;;;;;;;;;;9.20;99.90;;;;;;5078848;28;19971;-73
2022/11/06 03:12:24;;;;;;;;;;;9.30;99.90;;;;;;5075322;28;19928;-71
2022/11/06 03:14:53;;;;;;;;;;;9.20;99.90;;;;;;5075742;28;19920;-70
2022/11/06 03:17:28;;;;;;;;;;;9.20;99.90;;;;;;5067410;28;19927;-71
2022/11/06 03:20:07;;;;;;;;;;;9.20;99.90;;;;;;5074274;28;19927;-70
2022/11/06 03:22:37;;;;;;;;;;;9.20;99.90;;;;;;5087427;28;19921;-74
2022/11/06 03:25:02;;;;;;;;;;;9.20;99.90;;;;;;5071213;28;20186;-72
2022/11/06 03:27:31;;;;;;;;;;;9.20;99.90;;;;;;5078213;28;19929;-74
2022/11/06 03:30:05;;;;;;;;;;;9.30;99.90;;;;;;5056236;28;20015;-70
2022/11/06 03:32:45;;;;;;;;;;;9.30;99.90;;;;;;5064127;28;19924;-71
2022/11/06 03:35:15;;;;;;;;;;;9.20;99.90;;;;;;5073418;28;19925;-72
2022/11/06 03:38:04;;;;;;;;;;;9.20;99.90;;;;;;5073184;28;19966;-70
2022/11/06 03:40:31;;;;;;;;;;;9.20;99.90;;;;;;5048165;28;20461;-72
2022/11/06 03:42:59;;;;;;;;;;;9.20;99.90;;;;;;5095549;28;20290;-71
2022/11/06 03:45:26;;;;;;;;;;;9.20;99.90;;;;;;5076469;28;19924;-71
2022/11/06 03:47:54;;;;;;;;;;;9.10;99.90;;;;;;5078300;28;20336;-70
2022/11/06 03:50:33;;;;;;;;;;;9.20;99.90;;;;;;5079786;28;19920;-74
2022/11/06 03:53:29;;;;;;;;;;;9.20;99.90;;;;;;5064226;28;20283;-72
2022/11/06 03:56:06;;;;;;;;;;;9.10;99.90;;;;;;5072156;28;19925;-69
2022/11/06 03:58:34;;;;;;;;;;;9.10;99.90;;;;;;5074532;28;19927;-74
2022/11/06 04:01:02;;;;;;;;;;;9.20;99.90;;;;;;5053615;28;19974;-72
2022/11/06 04:03:36;;;;;;;;;;;9.10;99.90;;;;;;5067685;28;19921;-73
2022/11/06 04:06:06;;;;;;;;;;;9.10;99.90;;;;;;5062897;28;19932;-70
2022/11/06 04:14:04;;;;;;;;;;;9.10;99.90;;;;;;5070018;28;19974;-72
2022/11/06 04:16:32;;;;;;;;;;;9.20;99.90;;;;;;5050899;28;19928;-72
2022/11/06 04:18:58;;;;;;;;;;;9.10;99.90;;;;;;5076486;28;19943;-72
2022/11/06 04:21:25;;;;;;;;;;;9.10;99.90;;;;;;5062541;28;20394;-72
2022/11/06 04:26:51;;;;;;;;;;;9.10;99.90;;;;;;5060044;28;19927;-70
2022/11/06 04:29:38;;;;;;;;;;;9.10;99.90;;;;;;5068459;28;19924;-71
2022/11/06 04:32:11;;;;;;;;;;;9.10;99.90;;;;;;5102389;28;20063;-74
2022/11/06 04:34:36;;;;;;;;;;;9.20;99.90;;;;;;5067995;28;19958;-69
2022/11/06 04:37:10;;;;;;;;;;;9.10;99.90;;;;;;5073146;28;19966;-72
2022/11/06 04:39:42;;;;;;;;;;;9.10;99.90;;;;;;5071150;28;20293;-71
2022/11/06 04:42:16;;;;;;;;;;;9.10;99.90;;;;;;5057460;28;19943;-70
2022/11/06 04:44:44;;;;;;;;;;;9.00;99.90;;;;;;5068990;28;20390;-71
2022/11/06 04:47:11;;;;;;;;;;;9.10;99.90;;;;;;5078065;28;20003;-71
2022/11/06 04:49:37;;;;;;;;;;;9.10;99.90;;;;;;5072319;28;19920;-74
2022/11/06 04:52:05;;;;;;;;;;;9.20;99.90;;;;;;5065524;28;19921;-72
2022/11/06 04:54:30;;;;;;;;;;;9.10;99.90;;;;;;5073286;28;19920;-72
2022/11/06 04:56:58;;;;;;;;;;;9.10;99.90;;;;;;5074928;28;19927;-70
2022/11/06 04:59:24;;;;;;;;;;;9.00;99.90;;;;;;5066977;28;19995;-71
2022/11/06 05:01:49;;;;;;;;;;;9.10;99.90;;;;;;5076506;28;19979;-70
2022/11/06 05:04:15;;;;;;;;;;;9.00;99.90;;;;;;5065530;28;19931;-70
2022/11/06 05:06:40;;;;;;;;;;;9.00;99.90;;;;;;5059483;28;19943;-71
2022/11/06 05:09:06;;;;;;;;;;;9.10;99.90;;;;;;5074928;28;19959;-71
2022/11/06 05:11:31;;;;;;;;;;;9.10;99.90;;;;;;5102369;27;20148;-69
2022/11/06 05:13:57;;;;;;;;;;;9.10;99.90;;;;;;5065642;28;19973;-70
2022/11/06 05:16:22;;;;;;;;;;;9.10;99.90;;;;;;5079560;28;19920;-71
2022/11/06 05:18:48;;;;;;;;;;;9.10;99.90;;;;;;5072366;28;19920;-71
2022/11/06 05:23:58;;;;;;;;;;;9.10;99.90;;;;;;5083664;28;19967;-70
2022/11/06 05:26:24;;;;;;;;;;;9.10;99.90;;;;;;5071889;28;20170;-72
2022/11/06 05:28:50;;;;;;;;;;;9.10;99.90;;;;;;5075182;28;19920;-71
2022/11/06 05:31:16;;;;;;;;;;;9.10;99.90;;;;;;5088869;28;19920;-72
2022/11/06 05:33:41;;;;;;;;;;;9.10;99.90;;;;;;5093898;28;19943;-70
2022/11/06 05:36:07;;;;;;;;;;;9.00;99.90;;;;;;5063430;28;19928;-72
2022/11/06 05:38:33;;;;;;;;;;;9.00;99.90;;;;;;5078255;28;20390;-72
2022/11/06 05:40:58;;;;;;;;;;;9.10;99.90;;;;;;5093215;28;19923;-72
2022/11/06 05:43:24;;;;;;;;;;;9.00;99.90;;;;;;5061964;28;19964;-73
2022/11/06 05:45:49;;;;;;;;;;;9.00;99.90;;;;;;5076194;28;19924;-72
2022/11/06 05:48:15;;;;;;;;;;;9.20;99.90;;;;;;5076883;28;19926;-72
2022/11/06 05:50:40;;;;;;;;;;;9.10;99.90;;;;;;5074087;28;19921;-73
2022/11/06 05:53:06;;;;;;;;;;;9.10;99.90;;;;;;5091952;28;19928;-70
2022/11/06 05:55:31;;;;;;;;;;;9.10;99.90;;;;;;5105089;27;20366;-71
2022/11/06 05:57:57;;;;;;;;;;;9.20;99.90;;;;;;5075979;28;19920;-70
2022/11/06 06:00:23;;;;;;;;;;;9.20;99.90;;;;;;5071808;28;20014;-71
2022/11/06 06:02:48;;;;;;;;;;;9.20;99.90;;;;;;5061511;28;19966;-72
2022/11/06 06:05:14;;;;;;;;;;;9.20;99.90;;;;;;5060555;28;19983;-72
2022/11/06 06:07:40;;;;;;;;;;;9.20;99.90;;;;;;5084240;28;20413;-70
2022/11/06 06:10:06;;;;;;;;;;;9.20;99.90;;;;;;5072265;28;19968;-71
2022/11/06 06:12:32;;;;;;;;;;;9.30;99.90;;;;;;5074431;28;19973;-73
2022/11/06 06:14:57;;;;;;;;;;;9.20;99.90;;;;;;5068283;28;19979;-71
2022/11/06 06:17:23;;;;;;;;;;;9.20;99.90;;;;;;5070248;28;19924;-72
2022/11/06 06:19:48;;;;;;;;;;;9.20;99.90;;;;;;5064939;28;19921;-71
2022/11/06 06:22:14;;;;;;;;;;;9.20;99.90;;;;;;5070353;28;20378;-73
2022/11/06 06:24:40;;;;;;;;;;;9.30;99.90;;;;;;5073020;28;20021;-70
2022/11/06 06:27:05;;;;;;;;;;;9.30;99.90;;;;;;5075357;28;19920;-71
2022/11/06 06:29:30;;;;;;;;;;;9.30;99.90;;;;;;5082629;28;19926;-70
2022/11/06 06:31:56;;;;;;;;;;;9.30;99.90;;;;;;5072624;28;19943;-71
2022/11/06 06:34:21;;;;;;;;;;;9.30;99.90;;;;;;5070585;28;19925;-70
2022/11/06 06:36:51;;;;;;;;;;;9.30;99.90;;;;;;5059892;28;19927;-71
2022/11/06 06:39:18;;;;;;;;;;;9.40;99.90;;;;;;5067228;28;19956;-71
2022/11/06 06:41:43;;;;;;;;;;;9.40;99.90;;;;;;5057437;28;19959;-70
2022/11/06 06:44:09;;;;;;;;;;;9.40;99.90;;;;;;5072374;28;20013;-70
2022/11/06 06:46:35;;;;;;;;;;;9.40;99.90;;;;;;5071089;28;19920;-70
2022/11/06 06:49:01;;;;;;;;;;;9.50;99.90;;;;;;5073591;28;20054;-70
2022/11/06 06:51:27;;;;;;;;;;;9.40;99.90;;;;;;5064982;28;20323;-70
2022/11/06 06:53:52;;;;;;;;;;;9.40;99.90;;;;;;5055602;28;19928;-70
2022/11/06 06:56:18;;;;;;;;;;;9.50;99.90;;;;;;5073708;28;19924;-74
2022/11/06 06:58:45;;;;;;;;;;;9.50;99.90;;;;;;5069021;28;19921;-72
2022/11/06 07:01:11;;;;;;;;;;;9.50;99.90;;;;;;5069021;28;19950;-70
2022/11/06 07:03:41;;;;;;;;;;;9.50;99.90;;;;;;5079666;28;19924;-71
2022/11/06 07:06:07;;;;;;;;;;;9.50;99.90;;;;;;5072729;28;19928;-71
2022/11/06 07:08:33;;;;;;;;;;;9.60;99.90;;;;;;5069303;28;19920;-70
2022/11/06 07:11:00;;;;;;;;;;;9.60;99.90;;;;;;5068997;28;19928;-70
2022/11/06 07:13:26;;;;;;;;;;;9.60;99.90;;;;;;5075283;28;19921;-72
2022/11/06 07:15:51;;;;;;;;;;;9.60;99.90;;;;;;5110090;27;19920;-69
2022/11/06 07:18:17;;;;;;;;;;;9.70;99.90;;;;;;5076152;28;19924;-72
2022/11/06 07:20:42;;;;;;;;;;;9.70;99.90;;;;;;5063167;28;20397;-70
2022/11/06 07:23:08;;;;;;;;;;;9.80;99.90;;;;;;5063929;28;20065;-71
2022/11/06 07:25:33;;;;;;;;;;;9.70;99.90;;;;;;5055440;28;20386;-70
2022/11/06 07:28:01;;;;;;;;;;;9.70;99.90;;;;;;5075013;28;20342;-69
2022/11/06 07:30:26;;;;;;;;;;;9.80;99.90;;;;;;5071075;28;20298;-71
2022/11/06 07:32:52;;;;;;;;;;;9.80;99.90;;;;;;5071766;28;19921;-69
2022/11/06 07:35:17;;;;;;;;;;;9.90;99.90;;;;;;5073345;28;20418;-70
2022/11/06 07:37:43;;;;;;;;;;;9.90;99.90;;;;;;5079422;28;19920;-70
2022/11/06 07:40:09;;;;;;;;;;;9.80;99.90;;;;;;5060430;28;19927;-70
2022/11/06 07:42:34;;;;;;;;;;;9.90;99.90;;;;;;5072093;28;20026;-71
2022/11/06 07:45:00;;;;;;;;;;;9.80;99.90;;;;;;5075698;28;19935;-70
2022/11/06 07:47:26;;;;;;;;;;;9.90;99.90;;;;;;5075629;28;19943;-70
2022/11/06 07:49:52;;;;;;;;;;;9.90;99.90;;;;;;5069767;28;20358;-72
2022/11/06 07:52:17;;;;;;;;;;;9.90;99.90;;;;;;5069904;28;19928;-70
2022/11/06 07:54:43;;;;;;;;;;;10.00;99.90;;;;;;5067896;28;19991;-71
2022/11/06 07:57:08;;;;;;;;;;;9.90;99.90;;;;;;5066297;28;19929;-70
2022/11/06 07:59:34;;;;;;;;;;;10.00;99.90;;;;;;5063629;28;19947;-72
2022/11/06 08:02:00;;;;;;;;;;;10.10;99.90;;;;;;5077872;28;20272;-71
2022/11/06 08:04:25;;;;;;;;;;;10.10;99.90;;;;;;5070796;28;19924;-70
2022/11/06 08:06:51;;;;;;;;;;;10.00;99.90;;;;;;5066154;28;19928;-73
2022/11/06 08:09:16;;;;;;;;;;;10.10;99.90;;;;;;5074761;28;19989;-69
2022/11/06 08:11:42;;;;;;;;;;;10.10;99.90;;;;;;5071647;28;19920;-71
2022/11/06 08:14:10;;;;;;;;;;;10.20;99.90;;;;;;5069730;28;19977;-72
2022/11/06 08:16:35;;;;;;;;;;;10.20;99.90;;;;;;5084171;28;19920;-71
2022/11/06 08:19:01;;;;;;;;;;;10.10;99.90;;;;;;5077030;28;19924;-72
2022/11/06 08:21:27;;;;;;;;;;;10.20;99.90;;;;;;5058993;28;19977;-74
2022/11/06 08:23:52;;;;;;;;;;;10.20;99.90;;;;;;5054229;28;19920;-71
2022/11/06 08:26:18;;;;;;;;;;;10.20;99.90;;;;;;5070771;28;19951;-69
2022/11/06 08:28:53;;;;;;;;;;;10.20;99.90;;;;;;5064650;28;20356;-73
2022/11/06 08:31:19;;;;;;;;;;;10.20;99.90;;;;;;5060507;28;20389;-72
2022/11/06 08:33:45;;;;;;;;;;;10.20;99.90;;;;;;5076995;28;19931;-72
2022/11/06 08:36:10;;;;;;;;;;;10.20;99.90;;;;;;5071335;28;19924;-72
2022/11/06 08:38:36;;;;;;;;;;;10.30;99.90;;;;;;5064185;28;19921;-69
2022/11/06 08:41:05;;;;;;;;;;;10.30;99.90;;;;;;5071265;28;20036;-72
2022/11/06 08:43:31;;;;;;;;;;;10.30;99.90;;;;;;5072565;28;19920;-73
2022/11/06 08:45:57;;;;;;;;;;;10.30;99.90;;;;;;5071706;28;19974;-71
2022/11/06 08:48:23;;;;;;;;;;;10.40;99.90;;;;;;5064450;28;19970;-71
2022/11/06 08:50:57;;;;;;;;;;;10.40;99.90;;;;;;5061077;28;20319;-70
2022/11/06 08:53:22;;;;;;;;;;;10.40;99.90;;;;;;5076473;28;19928;-71
2022/11/06 08:55:48;;;;;;;;;;;10.50;99.90;;;;;;5091766;28;19920;-71
2022/11/06 08:58:13;;;;;;;;;;;10.60;99.90;;;;;;5071627;28;19927;-70
2022/11/06 09:00:39;;;;;;;;;;;10.60;99.90;;;;;;5061294;28;19921;-70
2022/11/06 09:03:12;;;;;;;;;;;10.50;99.90;;;;;;5107918;27;19924;-73
2022/11/06 09:05:41;;;;;;;;;;;10.60;99.90;;;;;;5064338;28;19925;-71
2022/11/06 09:08:07;;;;;;;;;;;10.70;99.90;;;;;;5064772;28;19928;-69
2022/11/06 09:10:32;;;;;;;;;;;10.80;99.90;;;;;;5076470;28;19920;-71
2022/11/06 09:12:58;;;;;;;;;;;10.90;99.90;;;;;;5067813;28;20003;-70
2022/11/06 09:15:31;;;;;;;;;;;11.00;99.90;;;;;;5063627;28;19921;-71
2022/11/06 09:17:57;;;;;;;;;;;11.10;99.90;;;;;;5066169;28;20015;-71
2022/11/06 09:20:23;;;;;;;;;;;11.20;99.90;;;;;;5065759;28;20019;-70
2022/11/06 09:22:49;;;;;;;;;;;11.10;99.90;;;;;;5073815;28;19920;-70
2022/11/06 09:25:14;;;;;;;;;;;11.10;99.90;;;;;;5079961;28;20057;-71
2022/11/06 09:27:41;;;;;;;;;;;11.20;99.90;;;;;;5068914;28;19921;-71
2022/11/06 09:30:07;;;;;;;;;;;11.10;99.90;;;;;;5070512;28;19920;-71
2022/11/06 09:32:32;;;;;;;;;;;11.10;99.90;;;;;;5060908;28;19921;-70
2022/11/06 09:34:59;;;;;;;;;;;11.10;99.90;;;;;;5066547;28;19975;-73
2022/11/06 09:37:24;;;;;;;;;;;11.20;99.90;;;;;;5103871;28;19932;-73
2022/11/06 09:39:50;;;;;;;;;;;11.10;99.90;;;;;;5052455;28;19920;-71
2022/11/06 09:42:26;;;;;;;;;;;11.30;99.90;;;;;;5064211;28;20283;-70
2022/11/06 09:44:57;;;;;;;;;;;11.20;99.90;;;;;;5070765;28;19963;-72
2022/11/06 09:47:25;;;;;;;;;;;11.30;99.90;;;;;;5063747;28;20030;-70
2022/11/06 09:50:03;;;;;;;;;;;11.40;99.90;;;;;;5063803;28;19955;-72
2022/11/06 09:52:38;;;;;;;;;;;11.50;99.90;;;;;;5068659;28;19951;-71
2022/11/06 09:55:08;;;;;;;;;;;11.50;99.90;;;;;;5069826;28;20299;-69
2022/11/06 09:57:41;;;;;;;;;;;11.50;99.90;;;;;;5067405;28;20302;-70
2022/11/06 10:00:07;;;;;;;;;;;11.50;99.90;;;;;;5074095;28;19929;-70
2022/11/06 10:02:36;;;;;;;;;;;11.50;99.90;;;;;;5072813;28;20003;-74
2022/11/06 10:05:10;;;;;;;;;;;11.50;99.90;;;;;;5071241;28;19932;-70
2022/11/06 10:07:38;;;;;;;;;;;11.50;99.90;;;;;;5069719;28;19977;-72
2022/11/06 10:10:05;;;;;;;;;;;11.50;99.90;;;;;;5074418;28;19947;-72
2022/11/06 10:12:39;;;;;;;;;;;11.40;99.90;;;;;;5077281;28;19977;-71
2022/11/06 10:15:23;;;;;;;;;;;11.40;99.90;;;;;;5071656;28;19930;-72
2022/11/06 10:17:55;;;;;;;;;;;11.40;99.90;;;;;;5101534;28;19926;-71
2022/11/06 10:20:33;;;;;;;;;;;11.50;99.90;;;;;;5078244;28;19928;-70
2022/11/06 10:22:58;;;;;;;;;;;11.50;99.90;;;;;;5067331;28;19928;-71
2022/11/06 10:25:33;;;;;;;;;;;11.60;99.90;;;;;;5073828;28;19928;-70
2022/11/06 10:27:59;;;;;;;;;;;11.70;99.90;;;;;;5102858;27;20007;-70
2022/11/06 10:30:25;;;;;;;;;;;11.70;99.90;;;;;;5065193;28;19928;-69
2022/11/06 10:33:00;;;;;;;;;;;11.80;99.90;;;;;;5102004;27;20343;-70
2022/11/06 10:35:37;;;;;;;;;;;11.80;99.90;;;;;;5074041;28;19929;-71
2022/11/06 10:38:10;;;;;;;;;;;11.80;99.90;;;;;;5072781;28;19925;-70
2022/11/06 10:40:37;;;;;;;;;;;11.80;99.90;;;;;;5066264;28;19924;-70
2022/11/06 10:43:05;;;;;;;;;;;11.80;99.90;;;;;;5071241;28;19924;-70
2022/11/06 10:45:31;;;;;;;;;;;11.90;99.90;;;;;;5064425;28;20015;-70
2022/11/06 10:48:02;;;;;;;;;;;12.00;99.90;;;;;;5069894;28;19920;-70
2022/11/06 10:50:33;;;;;;;;;;;12.10;99.90;;;;;;5065408;28;19920;-69
2022/11/06 10:53:07;;;;;;;;;;;12.20;99.90;;;;;;5068349;28;19920;-70
2022/11/06 10:55:42;;;;;;;;;;;12.20;99.90;;;;;;5053650;28;20151;-70
2022/11/06 10:58:11;;;;;;;;;;;12.30;99.90;;;;;;5071358;28;19998;-70
2022/11/06 11:00:37;;;;;;;;;;;12.40;99.90;;;;;;5060704;28;19924;-70
2022/11/06 11:03:35;;;;;;;;;;;12.40;99.90;;;;;;5068611;28;19920;-68
2022/11/06 11:06:03;;;;;;;;;;;12.40;99.90;;;;;;5026860;28;19925;-70
2022/11/06 11:08:33;;;;;;;;;;;12.30;99.90;;;;;;5068721;28;19935;-70
2022/11/06 11:11:14;;;;;;;;;;;12.30;99.90;;;;;;5059487;28;19929;-71
2022/11/06 11:13:42;;;;;;;;;;;12.30;99.90;;;;;;5098629;27;19931;-69
2022/11/06 11:16:17;;;;;;;;;;;12.30;99.90;;;;;;5063593;28;20350;-70
2022/11/06 11:18:43;;;;;;;;;;;12.20;99.90;;;;;;5068643;28;19928;-70
2022/11/06 11:21:17;;;;;;;;;;;12.20;99.90;;;;;;5069701;28;20505;-72
2022/11/06 11:23:43;;;;;;;;;;;12.20;99.90;;;;;;5109782;27;19920;-70
2022/11/06 11:26:16;;;;;;;;;;;12.20;99.90;;;;;;5066495;28;19924;-71
2022/11/06 11:28:42;;;;;;;;;;;12.20;99.90;;;;;;5069559;28;19928;-70
2022/11/06 11:31:09;;;;;;;;;;;12.10;99.90;;;;;;5065892;28;19982;-70
2022/11/06 11:33:35;;;;;;;;;;;12.10;99.90;;;;;;5068263;28;19924;-70
2022/11/06 11:36:03;;;;;;;;;;;12.10;99.90;;;;;;5063836;28;19939;-70
2022/11/06 11:38:29;;;;;;;;;;;12.10;99.90;;;;;;5065337;28;19932;-69
2022/11/06 11:41:07;;;;;;;;;;;12.00;99.90;;;;;;5067967;28;19924;-71
2022/11/06 11:43:32;;;;;;;;;;;12.00;99.90;;;;;;5094264;27;19965;-69
2022/11/06 11:46:07;;;;;;;;;;;12.00;99.90;;;;;;5066172;28;20328;-70
2022/11/06 11:48:50;;;;;;;;;;;12.00;99.90;;;;;;5071986;28;19925;-70
2022/11/06 11:51:24;;;;;;;;;;;12.00;99.90;;;;;;5066963;28;19928;-70
2022/11/06 11:53:51;;;;;;;;;;;12.00;99.90;;;;;;5068642;28;19972;-70
2022/11/06 11:56:18;;;;;;;;;;;12.10;99.90;;;;;;5067652;28;20206;-70
2022/11/06 11:58:48;;;;;;;;;;;12.10;99.90;;;;;;5067712;28;20148;-69
2022/11/06 12:01:13;;;;;;;;;;;12.10;99.90;;;;;;5088215;27;19972;-70
2022/11/06 12:03:40;;;;;;;;;;;12.10;99.90;;;;;;5070427;28;19963;-71
2022/11/06 12:06:11;;;;;;;;;;;12.20;99.90;;;;;;5075591;28;20302;-71
2022/11/06 12:08:38;;;;;;;;;;;12.30;99.90;;;;;;5074787;28;19944;-70
2022/11/06 12:11:05;;;;;;;;;;;12.30;99.90;;;;;;5063724;28;19924;-69
2022/11/06 12:13:30;;;;;;;;;;;12.40;99.90;;;;;;5070787;28;19929;-70
2022/11/06 12:15:59;;;;;;;;;;;12.50;99.90;;;;;;5061335;28;19928;-70
2022/11/06 12:18:34;;;;;;;;;;;12.60;99.90;;;;;;5069208;28;19973;-69
2022/11/06 12:21:02;;;;;;;;;;;12.60;99.90;;;;;;5066907;28;20336;-72
2022/11/06 12:23:28;;;;;;;;;;;12.60;99.90;;;;;;5061552;28;20387;-69
2022/11/06 12:26:12;;;;;;;;;;;12.60;99.90;;;;;;5067087;28;20009;-70
2022/11/06 12:28:41;;;;;;;;;;;12.60;99.90;;;;;;5067637;28;19928;-70
2022/11/06 12:31:30;;;;;;;;;;;12.50;99.90;;;;;;5094339;27;19928;-69
2022/11/06 12:33:56;;;;;;;;;;;12.50;99.90;;;;;;5057010;28;19920;-70
2022/11/06 12:36:23;;;;;;;;;;;12.50;99.90;;;;;;5093832;27;20484;-70
2022/11/06 12:38:58;;;;;;;;;;;12.40;99.90;;;;;;5061731;28;19921;-70
2022/11/06 12:41:25;;;;;;;;;;;12.50;99.90;;;;;;5067850;28;19947;-69
2022/11/06 12:43:51;;;;;;;;;;;12.40;99.90;;;;;;5070437;28;19928;-70
2022/11/06 12:46:35;;;;;;;;;;;12.30;99.90;;;;;;5066022;28;19928;-70
2022/11/06 12:49:21;;;;;;;;;;;12.30;99.90;;;;;;5050131;28;19933;-71
2022/11/06 12:51:50;;;;;;;;;;;12.20;99.90;;;;;;5096890;27;19925;-68
2022/11/06 12:57:26;;;;;;;;;;;12.20;99.90;;;;;;5078485;28;19983;-70
2022/11/06 13:00:00;;;;;;;;;;;12.20;99.90;;;;;;5070871;28;19928;-70
2022/11/06 13:02:29;;;;;;;;;;;12.10;99.90;;;;;;5073374;28;19925;-70
2022/11/06 13:05:00;;;;;;;;;;;12.10;99.90;;;;;;5070117;28;19928;-70
2022/11/06 13:07:33;;;;;;;;;;;12.10;99.90;;;;;;5105724;27;20287;-70
2022/11/06 13:10:02;;;;;;;;;;;12.00;99.90;;;;;;5116535;27;19921;-68
2022/11/06 13:12:42;;;;;;;;;;;12.00;99.90;;;;;;5050876;28;19920;-68
2022/11/06 13:15:22;;;;;;;;;;;12.00;99.90;;;;;;5064509;28;19925;-69
2022/11/06 13:17:51;;;;;;;;;;;12.00;99.90;;;;;;5060769;28;20383;-70
2022/11/06 13:20:23;;;;;;;;;;;12.00;99.90;;;;;;5052786;28;19928;-70
2022/11/06 13:22:52;;;;;;;;;;;12.00;99.90;;;;;;5052314;28;19921;-70
2022/11/06 13:25:23;;;;;;;;;;;12.00;99.90;;;;;;5063607;28;19928;-69
2022/11/06 13:27:53;;;;;;;;;;;11.90;99.90;;;;;;5058700;28;20371;-71
2022/11/06 13:30:20;;;;;;;;;;;11.90;99.90;;;;;;5052117;28;19943;-70
2022/11/06 13:33:00;;;;;;;;;;;11.90;99.90;;;;;;5053133;28;19925;-71
2022/11/06 13:35:26;;;;;;;;;;;11.90;99.90;;;;;;5064360;28;20109;-70
2022/11/06 13:37:53;;;;;;;;;;;11.90;99.90;;;;;;5072005;28;19921;-71
2022/11/06 13:40:21;;;;;;;;;;;11.80;99.90;;;;;;5071658;28;19921;-69
2022/11/06 13:42:50;;;;;;;;;;;11.80;99.90;;;;;;5071056;28;19980;-70
2022/11/06 13:45:16;;;;;;;;;;;11.80;99.90;;;;;;5070031;28;20015;-70
2022/11/06 13:48:17;;;;;;;;;;;11.90;99.90;;;;;;5061998;28;19963;-70
2022/11/06 13:51:01;;;;;;;;;;;11.80;99.90;;;;;;5053061;28;19969;-69
2022/11/06 13:53:27;;;;;;;;;;;11.70;99.90;;;;;;5067202;28;19970;-68
2022/11/06 13:56:18;;;;;;;;;;;11.70;99.90;;;;;;5074902;28;20358;-69
2022/11/06 13:58:53;;;;;;;;;;;11.70;99.90;;;;;;5063428;28;19928;-70
2022/11/06 14:01:30;;;;;;;;;;;11.60;99.90;;;;;;5080568;28;19946;-69
2022/11/06 14:04:08;;;;;;;;;;;11.60;99.90;;;;;;5074271;28;19967;-70
2022/11/06 14:06:35;;;;;;;;;;;11.60;99.90;;;;;;5083784;28;19924;-70
2022/11/06 14:09:05;;;;;;;;;;;11.60;99.90;;;;;;5073498;28;19921;-72
2022/11/06 14:11:35;;;;;;;;;;;11.60;99.90;;;;;;5076075;28;20011;-69
2022/11/06 14:14:02;;;;;;;;;;;11.50;99.90;;;;;;5074107;28;19927;-69
2022/11/06 14:16:38;;;;;;;;;;;11.50;99.90;;;;;;5081426;28;19921;-69
2022/11/06 14:19:04;;;;;;;;;;;11.50;99.90;;;;;;5055414;28;19974;-71
2022/11/06 14:21:35;;;;;;;;;;;11.50;99.90;;;;;;5070003;28;19921;-70
2022/11/06 14:24:20;;;;;;;;;;;11.40;99.90;;;;;;5072329;28;19920;-69
2022/11/06 14:26:46;;;;;;;;;;;11.40;99.90;;;;;;5073758;28;19929;-69
2022/11/06 14:29:27;;;;;;;;;;;11.40;99.90;;;;;;5075269;28;20370;-70
2022/11/06 14:32:02;;;;;;;;;;;11.40;99.90;;;;;;5073800;28;19928;-70
2022/11/06 14:34:31;;;;;;;;;;;11.40;99.90;;;;;;5109336;28;19920;-69
2022/11/06 14:36:56;;;;;;;;;;;11.40;99.90;;;;;;5073094;28;19921;-69
2022/11/06 14:39:41;;;;;;;;;;;11.40;99.90;;;;;;5066759;28;19928;-69
2022/11/06 14:42:06;;;;;;;;;;;11.40;99.90;;;;;;5058431;28;19920;-69
2022/11/06 14:44:44;;;;;;;;;;;11.30;99.90;;;;;;5067959;28;19935;-69
2022/11/06 14:47:19;;;;;;;;;;;11.30;99.90;;;;;;5103877;28;19921;-69
2022/11/06 14:49:48;;;;;;;;;;;11.30;99.90;;;;;;5044587;28;20291;-70
2022/11/06 14:52:14;;;;;;;;;;;11.20;99.90;;;;;;5070456;28;20366;-69